createdAt,value
2018-10-18T00:01:52.491Z,14.70
2018-10-18T00:04:19.997Z,14.70
2018-10-18T00:06:47.521Z,14.80
2018-10-18T00:09:15.028Z,14.80
2018-10-18T00:11:42.511Z,14.80
2018-10-18T00:14:10.065Z,14.80
2018-10-18T00:16:37.463Z,14.90
2018-10-18T00:19:05.022Z,14.90
2018-10-18T00:21:32.528Z,14.90
2018-10-18T00:24:00.088Z,14.90
2018-10-18T00:26:27.513Z,14.90
2018-10-18T00:28:55.007Z,14.90
2018-10-18T00:31:22.532Z,15.00
2018-10-18T00:33:50.132Z,15.00
2018-10-18T00:36:17.682Z,14.90
2018-10-18T00:38:45.123Z,15.00
2018-10-18T00:41:12.595Z,15.00
2018-10-18T00:43:40.107Z,15.10
2018-10-18T00:46:07.597Z,15.00
2018-10-18T00:48:35.063Z,15.00
2018-10-18T00:51:02.615Z,15.00
2018-10-18T00:53:30.091Z,15.00
2018-10-18T00:55:57.639Z,14.90
2018-10-18T00:58:25.317Z,14.90
2018-10-18T01:00:52.797Z,14.90
2018-10-18T01:03:20.321Z,14.80
2018-10-18T01:05:47.901Z,14.70
2018-10-18T01:08:15.501Z,14.60
2018-10-18T01:10:42.960Z,14.50
2018-10-18T01:13:10.488Z,14.40
2018-10-18T01:15:38.013Z,14.30
2018-10-18T01:18:06.101Z,14.20
2018-10-18T01:20:33.551Z,14.20
2018-10-18T01:23:01.031Z,14.20
2018-10-18T01:25:28.539Z,14.10
2018-10-18T01:27:56.033Z,14.10
2018-10-18T01:30:23.516Z,14.10
2018-10-18T01:32:51.031Z,14.00
2018-10-18T01:35:18.551Z,13.90
2018-10-18T01:37:46.076Z,13.90
2018-10-18T01:40:13.564Z,13.90
2018-10-18T01:42:41.063Z,13.80
2018-10-18T01:45:08.621Z,13.80
2018-10-18T01:47:36.090Z,13.70
2018-10-18T01:50:04.763Z,13.70
2018-10-18T01:52:32.183Z,13.80
2018-10-18T01:54:59.664Z,13.80
2018-10-18T01:57:27.159Z,13.80
2018-10-18T01:59:54.648Z,13.80
2018-10-18T02:02:22.158Z,13.90
2018-10-18T02:04:49.671Z,13.90
2018-10-18T02:07:17.233Z,13.90
2018-10-18T02:09:44.750Z,13.90
2018-10-18T02:12:12.393Z,13.90
2018-10-18T02:14:39.784Z,13.90
2018-10-18T02:17:07.237Z,13.90
2018-10-18T02:19:34.723Z,13.90
2018-10-18T02:22:02.211Z,13.90
2018-10-18T02:24:29.713Z,13.90
2018-10-18T02:26:57.205Z,13.80
2018-10-18T02:29:24.725Z,13.80
2018-10-18T02:31:52.210Z,13.80
2018-10-18T02:34:19.716Z,13.90
2018-10-18T02:36:47.180Z,13.80
2018-10-18T02:39:14.668Z,13.80
2018-10-18T02:41:42.173Z,13.80
2018-10-18T02:44:09.674Z,13.70
2018-10-18T02:46:37.176Z,13.70
2018-10-18T02:49:04.729Z,13.70
2018-10-18T02:51:32.242Z,13.70
2018-10-18T02:53:59.801Z,13.70
2018-10-18T02:56:27.313Z,13.70
2018-10-18T02:58:54.822Z,13.70
2018-10-18T03:01:22.343Z,13.70
2018-10-18T03:03:49.906Z,13.60
2018-10-18T03:06:17.525Z,13.70
2018-10-18T03:08:44.966Z,13.60
2018-10-18T03:11:12.497Z,13.50
2018-10-18T03:13:39.996Z,13.50
2018-10-18T03:16:07.596Z,13.60
2018-10-18T03:18:35.037Z,13.60
2018-10-18T03:21:02.536Z,13.60
2018-10-18T03:23:30.035Z,13.60
2018-10-18T03:25:57.534Z,13.60
2018-10-18T03:28:25.059Z,13.50
2018-10-18T03:30:52.569Z,13.50
2018-10-18T03:33:20.097Z,13.50
2018-10-18T03:35:47.582Z,13.50
2018-10-18T03:38:15.062Z,13.40
2018-10-18T03:40:42.616Z,13.40
2018-10-18T03:43:10.113Z,13.40
2018-10-18T03:45:37.600Z,13.30
2018-10-18T03:48:05.199Z,13.30
2018-10-18T03:50:32.616Z,13.20
2018-10-18T03:53:00.175Z,13.20
2018-10-18T03:55:27.687Z,13.20
2018-10-18T03:57:55.194Z,13.10
2018-10-18T04:00:22.683Z,13.10
2018-10-18T04:02:50.184Z,13.10
2018-10-18T04:05:17.693Z,13.00
2018-10-18T04:07:45.191Z,13.00
2018-10-18T04:10:12.693Z,13.00
2018-10-18T04:12:40.221Z,12.90
2018-10-18T04:15:07.783Z,12.80
2018-10-18T04:17:35.314Z,12.80
2018-10-18T04:20:02.859Z,12.80
2018-10-18T04:22:30.351Z,12.80
2018-10-18T04:24:57.894Z,12.80
2018-10-18T04:27:25.355Z,12.80
2018-10-18T04:29:53.033Z,12.80
2018-10-18T04:32:20.792Z,12.80
2018-10-18T04:34:48.289Z,12.80
2018-10-18T04:37:15.808Z,12.70
2018-10-18T04:39:43.306Z,12.70
2018-10-18T04:42:10.909Z,12.70
2018-10-18T04:44:38.331Z,12.70
2018-10-18T04:47:06.178Z,12.70
2018-10-18T04:49:33.634Z,12.70
2018-10-18T04:52:01.168Z,12.70
2018-10-18T04:54:28.667Z,12.80
2018-10-18T04:56:56.288Z,12.70
2018-10-18T04:59:23.765Z,12.70
2018-10-18T05:01:51.263Z,12.70
2018-10-18T05:04:18.768Z,12.60
2018-10-18T05:06:46.260Z,12.60
2018-10-18T05:09:13.766Z,12.60
2018-10-18T05:11:41.261Z,12.60
2018-10-18T05:14:08.768Z,12.60
2018-10-18T05:16:42.949Z,12.60
2018-10-18T05:19:10.540Z,12.60
2018-10-18T05:21:37.972Z,12.70
2018-10-18T05:24:05.558Z,12.70
2018-10-18T05:26:33.066Z,12.70
2018-10-18T05:29:00.538Z,12.70
2018-10-18T05:31:28.122Z,12.70
2018-10-18T05:33:55.570Z,12.70
2018-10-18T05:36:23.081Z,12.70
2018-10-18T05:38:50.609Z,12.70
2018-10-18T05:41:18.155Z,12.70
2018-10-18T05:43:45.713Z,12.80
2018-10-18T05:46:13.348Z,12.80
2018-10-18T05:48:40.857Z,12.70
2018-10-18T05:51:08.385Z,12.70
2018-10-18T05:53:35.946Z,12.70
2018-10-18T05:56:03.417Z,12.70
2018-10-18T05:58:30.924Z,12.80
2018-10-18T06:00:58.445Z,12.80
2018-10-18T06:03:25.944Z,12.80
2018-10-18T06:05:53.438Z,12.80
2018-10-18T06:08:21.703Z,12.80
2018-10-18T06:11:00.498Z,12.80
2018-10-18T06:13:28.054Z,12.80
2018-10-18T06:15:55.568Z,12.80
2018-10-18T06:18:23.070Z,12.80
2018-10-18T06:20:50.721Z,12.80
2018-10-18T06:23:18.274Z,12.80
2018-10-18T06:25:45.742Z,12.80
2018-10-18T06:28:13.286Z,12.70
2018-10-18T06:30:40.780Z,12.80
2018-10-18T06:33:08.338Z,12.80
2018-10-18T06:35:35.844Z,12.80
2018-10-18T06:38:03.639Z,12.80
2018-10-18T06:40:31.137Z,12.90
2018-10-18T06:42:58.713Z,13.00
2018-10-18T06:45:26.172Z,13.10
2018-10-18T06:47:53.837Z,13.20
2018-10-18T06:50:21.309Z,13.20
2018-10-18T06:52:48.862Z,13.30
2018-10-18T06:55:16.403Z,13.30
2018-10-18T06:57:44.324Z,13.30
2018-10-18T07:00:14.906Z,13.40
2018-10-18T07:02:43.004Z,13.50
2018-10-18T07:05:11.845Z,13.50
2018-10-18T07:07:39.429Z,13.60
2018-10-18T07:10:07.192Z,13.50
2018-10-18T07:12:35.197Z,13.60
2018-10-18T07:15:03.054Z,13.70
2018-10-18T07:17:30.632Z,13.80
2018-10-18T07:19:58.098Z,13.90
2018-10-18T07:22:25.592Z,13.90
2018-10-18T07:24:53.152Z,13.80
2018-10-18T07:27:20.672Z,13.80
2018-10-18T07:29:48.154Z,13.80
2018-10-18T07:32:15.636Z,13.70
2018-10-18T07:34:43.129Z,13.80
2018-10-18T07:37:10.658Z,13.80
2018-10-18T07:39:38.106Z,13.80
2018-10-18T07:42:05.894Z,13.80
2018-10-18T07:44:33.374Z,13.90
2018-10-18T07:47:00.868Z,13.90
2018-10-18T07:49:28.438Z,13.90
2018-10-18T07:51:55.954Z,14.00
2018-10-18T07:54:23.428Z,14.10
2018-10-18T07:56:50.964Z,14.20
2018-10-18T07:59:18.480Z,14.30
2018-10-18T08:01:45.963Z,14.40
2018-10-18T08:04:13.477Z,14.40
2018-10-18T08:06:40.956Z,14.40
2018-10-18T08:09:10.709Z,14.50
2018-10-18T08:11:38.453Z,14.50
2018-10-18T08:14:05.917Z,14.70
2018-10-18T08:16:33.446Z,14.80
2018-10-18T08:19:01.325Z,14.90
2018-10-18T08:21:28.792Z,15.00
2018-10-18T08:23:56.298Z,15.10
2018-10-18T08:26:23.834Z,15.30
2018-10-18T08:28:51.311Z,15.40
2018-10-18T08:31:18.923Z,15.60
2018-10-18T08:33:46.355Z,15.80
2018-10-18T08:36:13.836Z,16.00
2018-10-18T08:38:41.333Z,16.30
2018-10-18T08:41:09.139Z,16.40
2018-10-18T08:43:36.645Z,16.50
2018-10-18T08:46:04.248Z,16.50
2018-10-18T08:48:31.735Z,16.50
2018-10-18T08:50:59.253Z,16.70
2018-10-18T08:53:26.733Z,16.80
2018-10-18T08:55:54.241Z,16.90
2018-10-18T08:58:21.720Z,16.70
2018-10-18T09:00:49.199Z,16.80
2018-10-18T09:03:16.689Z,16.90
2018-10-18T09:05:44.164Z,17.10
2018-10-18T09:08:11.631Z,17.10
2018-10-18T09:10:39.133Z,17.20
2018-10-18T09:13:06.654Z,17.30
2018-10-18T09:15:34.195Z,17.60
2018-10-18T09:18:01.737Z,17.60
2018-10-18T09:20:29.249Z,17.60
2018-10-18T09:22:56.705Z,17.70
2018-10-18T09:25:24.359Z,17.80
2018-10-18T09:27:51.670Z,18.00
2018-10-18T09:30:19.226Z,18.50
2018-10-18T09:32:46.723Z,18.80
2018-10-18T09:35:14.236Z,18.80
2018-10-18T09:37:41.733Z,19.30
2018-10-18T09:40:10.129Z,19.60
2018-10-18T09:42:37.696Z,19.70
2018-10-18T09:45:06.664Z,19.80
2018-10-18T09:47:34.206Z,20.10
2018-10-18T09:50:01.702Z,20.50
2018-10-18T09:52:29.201Z,20.80
2018-10-18T09:54:56.787Z,20.50
2018-10-18T09:57:24.194Z,20.00
2018-10-18T09:59:51.681Z,19.80
2018-10-18T10:02:24.900Z,19.50
2018-10-18T10:04:52.419Z,19.10
2018-10-18T10:07:19.932Z,18.90
2018-10-18T10:09:47.402Z,18.70
2018-10-18T10:12:14.859Z,18.50
2018-10-18T10:14:42.342Z,18.40
2018-10-18T10:17:09.919Z,18.20
2018-10-18T10:19:37.376Z,18.20
2018-10-18T10:22:05.111Z,18.10
2018-10-18T10:24:32.666Z,18.10
2018-10-18T10:27:00.113Z,18.10
2018-10-18T10:29:27.659Z,18.20
2018-10-18T10:31:55.183Z,18.30
2018-10-18T10:34:22.677Z,18.40
2018-10-18T10:36:50.192Z,18.50
2018-10-18T10:39:17.759Z,18.50
2018-10-18T10:41:45.231Z,18.70
2018-10-18T10:44:12.876Z,18.80
2018-10-18T10:46:40.731Z,19.00
2018-10-18T10:49:08.937Z,19.60
2018-10-18T10:51:36.951Z,19.90
2018-10-18T10:54:05.543Z,20.00
2018-10-18T10:56:33.048Z,19.90
2018-10-18T10:59:04.904Z,19.70
2018-10-18T11:01:32.385Z,19.60
2018-10-18T11:03:59.858Z,19.40
2018-10-18T11:06:27.367Z,19.40
2018-10-18T11:08:54.898Z,19.20
2018-10-18T11:11:22.710Z,19.20
2018-10-18T11:13:50.214Z,19.20
2018-10-18T11:16:17.752Z,19.10
2018-10-18T11:18:45.307Z,19.20
2018-10-18T11:21:15.097Z,19.10
2018-10-18T11:23:42.561Z,19.10
2018-10-18T11:26:10.185Z,19.40
2018-10-18T11:28:37.595Z,19.30
2018-10-18T11:31:05.215Z,19.40
2018-10-18T11:33:32.710Z,19.40
2018-10-18T11:36:00.324Z,19.20
2018-10-18T11:38:27.774Z,19.30
2018-10-18T11:40:55.284Z,19.20
2018-10-18T11:43:22.792Z,19.20
2018-10-18T11:45:50.305Z,19.10
2018-10-18T11:48:17.823Z,18.90
2018-10-18T11:50:45.641Z,18.80
2018-10-18T11:53:13.182Z,18.80
2018-10-18T11:55:40.773Z,18.70
2018-10-18T11:58:09.312Z,18.60
2018-10-18T12:00:36.832Z,18.50
2018-10-18T12:03:04.748Z,18.70
2018-10-18T12:05:32.228Z,18.70
2018-10-18T12:07:59.756Z,18.60
2018-10-18T12:10:27.269Z,18.50
2018-10-18T12:12:54.777Z,18.50
2018-10-18T12:15:22.268Z,18.40
2018-10-18T12:17:49.809Z,18.50
2018-10-18T12:20:17.786Z,18.70
2018-10-18T12:22:45.255Z,19.00
2018-10-18T12:25:13.268Z,19.50
2018-10-18T12:27:41.161Z,19.80
2018-10-18T12:30:09.174Z,20.40
2018-10-18T12:32:36.997Z,20.90
2018-10-18T12:35:04.754Z,20.70
2018-10-18T12:37:32.180Z,20.50
2018-10-18T12:39:59.882Z,20.20
2018-10-18T12:42:27.444Z,19.90
2018-10-18T12:44:55.006Z,19.50
2018-10-18T12:47:22.492Z,19.40
2018-10-18T12:49:50.010Z,19.30
2018-10-18T12:52:17.543Z,19.10
2018-10-18T12:54:45.150Z,19.00
2018-10-18T12:57:13.500Z,18.90
2018-10-18T12:59:41.008Z,18.80
2018-10-18T13:02:08.739Z,18.80
2018-10-18T13:04:36.598Z,18.70
2018-10-18T13:07:10.877Z,18.80
2018-10-18T13:09:38.379Z,18.60
2018-10-18T13:12:05.914Z,18.50
2018-10-18T13:14:33.406Z,18.30
2018-10-18T13:17:00.899Z,18.30
2018-10-18T13:19:28.392Z,18.40
2018-10-18T13:21:55.921Z,18.40
2018-10-18T13:24:23.411Z,18.40
2018-10-18T13:26:51.051Z,18.40
2018-10-18T13:29:18.583Z,18.40
2018-10-18T13:31:46.281Z,18.40
2018-10-18T13:34:13.802Z,18.40
2018-10-18T13:36:41.324Z,18.40
2018-10-18T13:39:10.417Z,18.50
2018-10-18T13:41:38.161Z,18.40
2018-10-18T13:44:05.882Z,18.40
2018-10-18T13:46:33.522Z,18.50
2018-10-18T13:49:00.975Z,18.50
2018-10-18T13:51:28.561Z,18.50
2018-10-18T13:53:56.116Z,18.50
2018-10-18T13:56:23.641Z,18.70
2018-10-18T13:58:51.165Z,18.80
2018-10-18T14:01:18.689Z,19.00
2018-10-18T14:03:46.221Z,19.00
2018-10-18T14:06:13.771Z,18.90
2018-10-18T14:08:41.352Z,18.90
2018-10-18T14:11:08.927Z,18.90
2018-10-18T14:13:36.437Z,18.80
2018-10-18T14:16:04.369Z,18.90
2018-10-18T14:18:31.872Z,18.90
2018-10-18T14:20:59.429Z,18.90
2018-10-18T14:23:26.973Z,18.80
2018-10-18T14:25:54.521Z,18.60
2018-10-18T14:28:22.022Z,18.60
2018-10-18T14:30:49.587Z,18.60
2018-10-18T14:33:17.123Z,18.50
2018-10-18T14:35:44.692Z,18.50
2018-10-18T14:38:12.324Z,18.40
2018-10-18T14:40:39.778Z,18.40
2018-10-18T14:43:07.314Z,18.40
2018-10-18T14:45:34.858Z,18.40
2018-10-18T14:48:02.332Z,18.40
2018-10-18T14:50:30.374Z,18.30
2018-10-18T14:52:57.655Z,18.40
2018-10-18T14:55:25.163Z,18.40
2018-10-18T14:57:52.742Z,18.50
2018-10-18T15:00:20.262Z,18.50
2018-10-18T15:02:47.778Z,18.50
2018-10-18T15:05:15.435Z,18.40
2018-10-18T15:07:42.940Z,18.40
2018-10-18T15:10:11.812Z,18.30
2018-10-18T15:12:39.643Z,18.20
2018-10-18T15:15:08.164Z,18.10
2018-10-18T15:17:35.722Z,18.10
2018-10-18T15:20:03.758Z,18.10
2018-10-18T15:22:31.344Z,18.10
2018-10-18T15:24:58.882Z,17.90
2018-10-18T15:27:26.550Z,17.80
2018-10-18T15:29:53.960Z,17.80
2018-10-18T15:32:21.524Z,17.80
2018-10-18T15:34:48.959Z,17.80
2018-10-18T15:37:16.494Z,17.70
2018-10-18T15:39:43.987Z,17.60
2018-10-18T15:42:11.506Z,17.60
2018-10-18T15:44:39.022Z,17.60
2018-10-18T15:47:06.565Z,17.60
2018-10-18T15:49:34.106Z,17.60
2018-10-18T15:52:01.609Z,17.60
2018-10-18T15:54:29.204Z,17.60
2018-10-18T15:56:56.737Z,17.50
2018-10-18T15:59:24.228Z,17.50
2018-10-18T16:01:51.710Z,17.40
2018-10-18T16:04:19.210Z,17.40
2018-10-18T16:06:46.798Z,17.40
2018-10-18T16:09:14.662Z,17.40
2018-10-18T16:11:42.194Z,17.40
2018-10-18T16:14:09.772Z,17.30
2018-10-18T16:16:37.200Z,17.30
2018-10-18T16:19:04.930Z,17.20
2018-10-18T16:21:32.414Z,17.20
2018-10-18T16:23:59.929Z,17.20
2018-10-18T16:26:27.475Z,17.20
2018-10-18T16:28:55.020Z,17.20
2018-10-18T16:31:22.551Z,17.10
2018-10-18T16:33:50.085Z,17.10
2018-10-18T16:36:17.547Z,17.00
2018-10-18T16:38:45.109Z,17.00
2018-10-18T16:41:12.866Z,17.00
2018-10-18T16:43:40.205Z,16.90
2018-10-18T16:46:07.763Z,16.90
2018-10-18T16:48:35.283Z,16.80
2018-10-18T16:51:02.874Z,16.80
2018-10-18T16:53:30.421Z,16.80
2018-10-18T16:55:58.053Z,16.80
2018-10-18T16:58:25.605Z,16.70
2018-10-18T17:00:53.107Z,16.60
2018-10-18T17:03:20.633Z,16.60
2018-10-18T17:05:48.183Z,16.70
2018-10-18T17:08:15.798Z,16.70
2018-10-18T17:10:43.538Z,16.70
2018-10-18T17:13:11.069Z,16.60
2018-10-18T17:15:38.592Z,16.60
2018-10-18T17:18:06.172Z,16.60
2018-10-18T17:20:33.714Z,16.50
2018-10-18T17:23:01.221Z,16.50
2018-10-18T17:25:28.732Z,16.50
2018-10-18T17:27:56.346Z,16.50
2018-10-18T17:30:23.877Z,16.40
2018-10-18T17:32:51.457Z,16.50
2018-10-18T17:35:18.986Z,16.40
2018-10-18T17:37:46.489Z,16.40
2018-10-18T17:40:14.209Z,16.40
2018-10-18T17:42:41.604Z,16.40
2018-10-18T17:45:10.205Z,16.40
2018-10-18T17:47:37.765Z,16.30
2018-10-18T17:50:05.831Z,16.30
2018-10-18T17:52:34.012Z,16.40
2018-10-18T17:55:01.556Z,16.30
2018-10-18T17:57:29.082Z,16.30
2018-10-18T17:59:56.738Z,16.30
2018-10-18T18:02:24.252Z,16.30
2018-10-18T18:04:51.820Z,16.30
2018-10-18T18:07:19.362Z,16.30
2018-10-18T18:09:47.001Z,16.20
2018-10-18T18:12:14.564Z,16.10
2018-10-18T18:14:42.070Z,16.00
2018-10-18T18:17:09.673Z,16.00
2018-10-18T18:19:37.257Z,15.90
2018-10-18T18:22:05.216Z,15.80
2018-10-18T18:24:32.697Z,15.80
2018-10-18T18:27:00.402Z,15.70
2018-10-18T18:29:27.942Z,15.60
2018-10-18T18:31:55.489Z,15.50
2018-10-18T18:34:23.023Z,15.40
2018-10-18T18:36:50.529Z,15.40
2018-10-18T18:39:18.380Z,15.30
2018-10-18T18:41:46.106Z,15.30
2018-10-18T18:44:13.690Z,15.20
2018-10-18T18:46:41.252Z,15.10
2018-10-18T18:49:08.698Z,15.10
2018-10-18T18:51:36.313Z,15.10
2018-10-18T18:54:03.792Z,15.00
2018-10-18T18:56:31.576Z,14.90
2018-10-18T18:58:59.104Z,14.90
2018-10-18T19:01:26.596Z,14.80
2018-10-18T19:03:54.120Z,14.70
2018-10-18T19:06:21.856Z,14.70
2018-10-18T19:08:49.387Z,14.70
2018-10-18T19:11:16.878Z,14.60
2018-10-18T19:13:44.372Z,14.60
2018-10-18T19:16:11.914Z,14.60
2018-10-18T19:18:39.407Z,14.50
2018-10-18T19:21:07.012Z,14.50
2018-10-18T19:23:35.463Z,14.40
2018-10-18T19:26:02.984Z,14.40
2018-10-18T19:28:30.575Z,14.30
2018-10-18T19:30:58.228Z,14.30
2018-10-18T19:33:25.724Z,14.30
2018-10-18T19:35:53.238Z,14.30
2018-10-18T19:38:20.790Z,14.30
2018-10-18T19:40:48.279Z,14.20
2018-10-18T19:43:15.982Z,14.20
2018-10-18T19:45:43.577Z,14.20
2018-10-18T19:48:11.556Z,14.20
2018-10-18T19:50:39.150Z,14.20
2018-10-18T19:53:07.166Z,14.20
2018-10-18T19:55:34.615Z,14.20
2018-10-18T19:58:02.318Z,14.30
2018-10-18T20:00:29.924Z,14.30
2018-10-18T20:02:57.570Z,14.40
2018-10-18T20:05:25.124Z,14.40
2018-10-18T20:07:52.911Z,14.40
2018-10-18T20:10:20.509Z,14.50
2018-10-18T20:12:48.129Z,14.50
2018-10-18T20:15:15.910Z,14.60
2018-10-18T20:17:43.312Z,14.60
2018-10-18T20:20:11.110Z,14.60
2018-10-18T20:22:38.708Z,14.60
2018-10-18T20:25:07.295Z,14.70
2018-10-18T20:27:34.596Z,14.70
2018-10-18T20:30:02.209Z,14.80
2018-10-18T20:32:29.752Z,14.80
2018-10-18T20:34:57.177Z,14.80
2018-10-18T20:37:24.699Z,14.80
2018-10-18T20:39:52.315Z,14.90
2018-10-18T20:42:19.728Z,14.90
2018-10-18T20:44:47.275Z,14.90
2018-10-18T20:47:14.848Z,14.80
2018-10-18T20:49:42.265Z,14.80
2018-10-18T20:52:09.775Z,14.90
2018-10-18T20:54:37.317Z,14.90
2018-10-18T20:57:05.005Z,14.90
2018-10-18T20:59:32.518Z,14.90
2018-10-18T21:02:00.131Z,15.00
2018-10-18T21:04:27.615Z,15.00
2018-10-18T21:06:55.104Z,15.00
2018-10-18T21:09:22.581Z,15.00
2018-10-18T21:11:50.061Z,15.00
2018-10-18T21:14:17.589Z,15.00
2018-10-18T21:16:45.070Z,15.00
2018-10-18T21:19:12.609Z,15.00
2018-10-18T21:21:40.112Z,15.00
2018-10-18T21:24:07.583Z,15.00
2018-10-18T21:26:35.107Z,15.00
2018-10-18T21:29:02.619Z,15.00
2018-10-18T21:31:30.079Z,15.00
2018-10-18T21:33:57.616Z,15.00
2018-10-18T21:36:25.120Z,15.00
2018-10-18T21:38:52.652Z,15.10
2018-10-18T21:41:20.149Z,15.10
2018-10-18T21:43:47.675Z,15.00
2018-10-18T21:46:15.199Z,15.00
2018-10-18T21:48:42.930Z,15.00
2018-10-18T21:51:10.500Z,15.00
2018-10-18T21:53:37.955Z,15.00
2018-10-18T21:56:05.458Z,14.90
2018-10-18T21:58:32.961Z,14.90
2018-10-18T22:01:00.477Z,14.90
2018-10-18T22:03:27.974Z,14.90
2018-10-18T22:05:55.490Z,14.80
2018-10-18T22:08:22.983Z,14.90
2018-10-18T22:10:50.492Z,14.70
2018-10-18T22:13:17.978Z,14.60
2018-10-18T22:15:45.477Z,14.60
2018-10-18T22:18:12.993Z,14.50
2018-10-18T22:20:40.507Z,14.50
2018-10-18T22:23:08.076Z,14.40
2018-10-18T22:25:35.508Z,14.40
2018-10-18T22:28:02.988Z,14.30
2018-10-18T22:30:30.512Z,14.30
2018-10-18T22:32:57.988Z,14.30
2018-10-18T22:35:25.526Z,14.30
2018-10-18T22:37:53.027Z,14.20
2018-10-18T22:40:20.525Z,14.20
2018-10-18T22:42:48.000Z,14.20
2018-10-18T22:45:15.669Z,14.10
2018-10-18T22:47:43.188Z,14.10
2018-10-18T22:50:10.694Z,14.00
2018-10-18T22:52:38.196Z,14.00
2018-10-18T22:55:05.790Z,13.90
2018-10-18T22:57:33.386Z,13.90
2018-10-18T23:00:00.901Z,13.90
2018-10-18T23:02:28.448Z,13.80
2018-10-18T23:04:55.940Z,13.80
2018-10-18T23:07:23.432Z,13.70
2018-10-18T23:09:51.002Z,13.70
2018-10-18T23:12:18.462Z,13.60
2018-10-18T23:14:45.951Z,13.60
2018-10-18T23:17:13.529Z,13.50
2018-10-18T23:19:40.928Z,13.40
2018-10-18T23:22:08.489Z,13.40
2018-10-18T23:24:37.564Z,13.30
2018-10-18T23:27:05.605Z,13.30
2018-10-18T23:29:33.081Z,13.20
2018-10-18T23:32:00.564Z,13.20
2018-10-18T23:34:28.084Z,13.10
2018-10-18T23:36:55.599Z,13.10
2018-10-18T23:39:23.060Z,13.00
2018-10-18T23:41:50.564Z,13.00
2018-10-18T23:44:18.022Z,13.00
2018-10-18T23:46:45.473Z,12.90
2018-10-18T23:49:12.980Z,12.80
2018-10-18T23:51:40.434Z,12.80
2018-10-18T23:54:07.910Z,12.70
2018-10-18T23:56:35.408Z,12.70
2018-10-18T23:59:02.944Z,12.60
